Time;durP1;ratioP1;P1;durP2;ratioP2;P2;SDS_P1;SDS_P2;PMS_P1;PMS_P2;Temp;Humidity;BMP_temperature;BMP_pressure;BME280_temperature;BME280_humidity;BME280_pressure;Samples;Min_cycle;Max_cycle;Signal;HPM_P1;HPM_P2
2021/10/08 00:02:13;;;;;;;20.33;15.13;;;6.00;81.10;;;;;;5009651;28;20041;-86
2021/10/08 00:04:39;;;;;;;24.33;15.55;;;6.00;80.90;;;;;;5022549;28;20018;-85
2021/10/08 00:07:05;;;;;;;22.70;16.00;;;5.90;80.80;;;;;;5018622;28;20546;-84
2021/10/08 00:09:32;;;;;;;23.83;15.82;;;5.90;81.00;;;;;;4998989;28;20026;-85
2021/10/08 00:11:58;;;;;;;25.52;16.40;;;5.90;81.20;;;;;;4998631;28;20556;-85
2021/10/08 00:14:26;;;;;;;21.70;16.30;;;5.90;81.20;;;;;;5014647;28;20075;-85
2021/10/08 00:16:53;;;;;;;24.35;15.95;;;5.90;81.30;;;;;;5020546;28;20041;-84
2021/10/08 00:19:19;;;;;;;22.35;16.27;;;5.90;81.60;;;;;;5025726;28;20029;-85
2021/10/08 00:21:45;;;;;;;24.20;16.05;;;5.80;81.60;;;;;;5021166;28;20013;-84
2021/10/08 00:24:12;;;;;;;24.10;15.55;;;5.80;81.60;;;;;;5039091;28;20037;-85
2021/10/08 00:26:40;;;;;;;23.17;16.48;;;5.80;81.60;;;;;;5017421;28;20021;-84
2021/10/08 00:29:10;;;;;;;27.58;17.50;;;5.80;82.00;;;;;;5017129;28;20030;-84
2021/10/08 00:31:37;;;;;;;21.27;16.60;;;5.70;82.30;;;;;;5015443;28;20014;-84
2021/10/08 00:34:03;;;;;;;26.63;17.13;;;5.70;82.40;;;;;;5015144;28;20166;-85
2021/10/08 00:36:29;;;;;;;28.08;18.00;;;5.70;82.70;;;;;;4999564;28;20022;-85
2021/10/08 00:38:55;;;;;;;22.02;17.23;;;5.70;82.90;;;;;;5015632;28;20104;-84
2021/10/08 00:41:22;;;;;;;22.08;17.00;;;5.70;83.50;;;;;;5014327;28;20510;-84
2021/10/08 00:43:48;;;;;;;32.53;22.30;;;5.60;83.00;;;;;;5014052;28;20022;-86
2021/10/08 00:46:14;;;;;;;27.98;19.45;;;5.60;83.20;;;;;;5014407;28;20026;-86
2021/10/08 00:48:42;;;;;;;32.10;19.00;;;5.70;83.30;;;;;;5018019;28;20022;-85
2021/10/08 00:51:08;;;;;;;30.60;18.05;;;5.70;83.30;;;;;;5001908;28;20027;-86
2021/10/08 00:53:34;;;;;;;31.83;18.25;;;5.60;83.20;;;;;;5007592;28;20145;-84
2021/10/08 00:56:01;;;;;;;28.90;18.42;;;5.70;83.20;;;;;;5010445;28;20046;-86
2021/10/08 00:58:28;;;;;;;32.15;18.48;;;5.70;83.10;;;;;;5015967;28;20427;-85
2021/10/08 01:00:54;;;;;;;32.30;18.40;;;5.70;83.20;;;;;;4999493;28;20110;-85
2021/10/08 01:03:22;;;;;;;28.48;18.73;;;5.60;83.20;;;;;;4999707;28;20517;-85
2021/10/08 01:05:49;;;;;;;27.48;17.25;;;5.60;83.20;;;;;;5007517;28;20026;-84
2021/10/08 01:08:15;;;;;;;27.83;17.70;;;5.60;82.80;;;;;;4996255;28;20049;-84
2021/10/08 01:10:43;;;;;;;31.45;19.08;;;5.60;82.40;;;;;;4995592;28;20026;-83
2021/10/08 01:13:10;;;;;;;25.58;17.60;;;5.60;82.10;;;;;;5001913;28;20065;-84
2021/10/08 01:15:36;;;;;;;28.60;16.75;;;5.60;81.80;;;;;;5013855;28;20045;-85
2021/10/08 01:18:03;;;;;;;25.20;18.77;;;5.60;81.70;;;;;;5013581;28;20026;-85
2021/10/08 01:20:30;;;;;;;29.48;18.13;;;5.60;81.90;;;;;;5013747;28;20018;-84
2021/10/08 01:22:59;;;;;;;27.45;18.77;;;5.60;82.20;;;;;;5013325;28;20033;-84
2021/10/08 01:25:27;;;;;;;34.05;18.42;;;5.60;82.50;;;;;;5013676;28;20029;-86
2021/10/08 01:27:54;;;;;;;28.45;19.48;;;5.50;82.60;;;;;;5014063;28;20045;-84
2021/10/08 01:47:11;;;;;;;32.92;19.90;;;5.30;83.00;;;;;;4998852;28;20037;-84
2021/10/08 01:49:37;;;;;;;26.00;19.13;;;5.30;83.00;;;;;;5001955;28;20021;-84
2021/10/08 01:52:05;;;;;;;33.58;20.70;;;5.30;83.20;;;;;;5007920;28;20026;-83
2021/10/08 01:54:30;;;;;;;;;;;5.20;83.20;;;;;;4994850;28;20049;-84
2021/10/08 01:56:56;;;;;;;26.70;18.73;;;5.30;82.80;;;;;;5009978;28;19906;-84
2021/10/08 01:59:22;;;;;;;30.92;19.50;;;5.20;83.00;;;;;;5017334;28;20403;-85
2021/10/08 02:01:48;;;;;;;24.15;19.17;;;5.30;83.20;;;;;;5017273;28;20042;-85
2021/10/08 02:04:13;;;;;;;29.63;19.30;;;5.20;83.20;;;;;;5014843;28;20041;-84
2021/10/08 02:06:40;;;;;;;29.67;19.73;;;5.30;83.30;;;;;;4997691;28;20029;-85
2021/10/08 02:09:07;;;;;;;27.45;17.98;;;5.30;83.30;;;;;;4997097;28;20480;-85
2021/10/08 02:11:33;;;;;;;;;;;5.20;83.20;;;;;;4998174;28;20030;-83
2021/10/08 02:13:59;;;;;;;25.90;17.77;;;5.20;82.70;;;;;;4979968;28;20490;-83
2021/10/08 02:16:25;;;;;;;29.40;20.23;;;5.10;83.20;;;;;;4985259;28;20033;-82
2021/10/08 02:18:53;;;;;;;30.52;21.10;;;5.10;83.50;;;;;;5004318;28;20030;-83
2021/10/08 02:21:20;;;;;;;31.65;20.27;;;5.10;83.70;;;;;;4985359;28;20041;-84
2021/10/08 02:23:47;;;;;;;23.95;18.10;;;5.10;83.90;;;;;;5001505;28;20050;-81
2021/10/08 02:26:13;;;;;;;26.15;19.50;;;5.10;83.90;;;;;;5002783;28;20033;-83
2021/10/08 02:28:39;;;;;;;29.70;17.80;;;5.00;83.90;;;;;;4997699;28;20038;-82
2021/10/08 02:31:05;;;;;;;33.25;19.35;;;5.00;84.00;;;;;;4996984;28;20018;-84
2021/10/08 02:33:34;;;;;;;26.92;18.83;;;5.00;84.00;;;;;;4995323;28;20488;-84
2021/10/08 02:36:04;;;;;;;25.17;18.63;;;5.00;84.00;;;;;;4997078;28;20140;-84
2021/10/08 02:38:30;;;;;;;31.65;19.58;;;5.00;84.10;;;;;;4996810;28;20066;-83
2021/10/08 02:40:56;;;;;;;31.17;18.70;;;5.00;84.10;;;;;;5013615;28;20033;-83
2021/10/08 02:43:22;;;;;;;23.77;16.70;;;5.00;84.10;;;;;;5016498;28;20113;-85
2021/10/08 02:45:48;;;;;;;31.42;18.98;;;5.00;84.00;;;;;;4998304;28;20435;-84
2021/10/08 02:48:14;;;;;;;31.17;19.17;;;5.00;83.90;;;;;;4997921;28;20033;-84
2021/10/08 02:50:40;;;;;;;30.65;19.10;;;5.00;83.90;;;;;;5010149;28;20064;-85
2021/10/08 02:53:06;;;;;;;33.60;20.20;;;5.00;83.90;;;;;;5026108;28;20522;-82
2021/10/08 02:55:32;;;;;;;26.38;18.48;;;5.00;83.90;;;;;;5016280;28;20026;-84
2021/10/08 02:57:59;;;;;;;29.02;19.05;;;5.00;84.40;;;;;;5016497;28;20029;-84
2021/10/08 03:00:24;;;;;;;32.05;18.70;;;5.00;83.70;;;;;;5016099;28;20029;-84
2021/10/08 03:02:50;;;;;;;33.03;18.35;;;5.00;83.70;;;;;;5016341;28;20450;-84
2021/10/08 03:05:16;;;;;;;37.92;18.98;;;5.00;83.70;;;;;;5017325;28;20029;-84
2021/10/08 03:07:42;;;;;;;27.85;19.17;;;5.00;83.70;;;;;;5016470;28;20022;-84
2021/10/08 03:10:10;;;;;;;31.45;18.35;;;5.00;83.90;;;;;;5016405;28;20041;-85
2021/10/08 03:12:36;;;;;;;29.77;18.48;;;4.90;83.90;;;;;;4998849;28;20026;-85
2021/10/08 03:15:03;;;;;;;27.73;17.58;;;4.90;83.90;;;;;;5016216;28;20022;-83
2021/10/08 03:17:29;;;;;;;32.72;18.85;;;4.90;84.00;;;;;;4998807;28;20427;-85
2021/10/08 03:19:55;;;;;;;29.50;19.42;;;4.90;84.00;;;;;;5016071;28;20022;-84
2021/10/08 03:22:21;;;;;;;32.13;19.75;;;4.90;84.10;;;;;;5016377;28;20061;-84
2021/10/08 03:24:46;;;;;;;29.05;17.90;;;4.90;84.00;;;;;;5016222;28;20401;-84
2021/10/08 03:27:12;;;;;;;29.70;18.88;;;4.90;83.90;;;;;;5015979;28;20076;-84
2021/10/08 03:29:38;;;;;;;25.90;18.52;;;4.90;83.90;;;;;;5015461;28;20093;-84
2021/10/08 03:32:07;;;;;;;33.00;19.17;;;4.90;84.60;;;;;;5016430;28;20550;-84
2021/10/08 03:34:34;;;;;;;24.15;18.00;;;4.90;84.20;;;;;;5015785;28;20026;-84
2021/10/08 03:37:06;;;;;;;29.13;20.17;;;4.90;84.00;;;;;;4998083;28;20030;-85
2021/10/08 03:39:36;;;;;;;36.33;19.13;;;4.90;84.00;;;;;;5017114;28;20076;-84
2021/10/08 03:42:02;;;;;;;28.88;18.77;;;5.00;84.00;;;;;;5015581;28;20028;-82
2021/10/08 03:44:33;;;;;;;31.10;18.85;;;4.90;84.00;;;;;;5015210;28;20073;-83
2021/10/08 03:46:59;;;;;;;32.75;20.08;;;4.90;84.10;;;;;;5016361;28;20024;-86
2021/10/08 03:49:26;;;;;;;29.63;19.10;;;5.00;84.20;;;;;;5003398;28;20037;-85
2021/10/08 03:51:54;;;;;;;36.15;20.98;;;4.90;84.30;;;;;;5015923;28;20022;-84
2021/10/08 03:54:21;;;;;;;29.45;18.83;;;4.90;84.60;;;;;;5015026;28;20033;-84
2021/10/08 03:56:48;;;;;;;32.47;20.73;;;4.90;84.80;;;;;;5014994;28;20050;-83
2021/10/08 03:59:15;;;;;;;31.50;19.63;;;4.80;84.90;;;;;;5014721;28;20467;-84
2021/10/08 04:01:41;;;;;;;33.85;19.95;;;4.90;85.00;;;;;;5014886;28;20042;-83
2021/10/08 04:04:07;;;;;;;28.50;19.23;;;4.90;84.90;;;;;;4997549;28;20104;-83
2021/10/08 04:06:34;;;;;;;30.27;20.10;;;4.90;84.90;;;;;;5015933;28;20026;-85
2021/10/08 04:09:02;;;;;;;30.00;18.67;;;4.90;84.90;;;;;;5001476;28;20030;-84
2021/10/08 04:11:28;;;;;;;32.50;20.48;;;4.90;84.90;;;;;;5018840;28;20034;-86
2021/10/08 04:13:54;;;;;;;29.00;20.05;;;4.90;84.80;;;;;;5005938;28;20029;-84
2021/10/08 04:16:20;;;;;;;31.55;19.55;;;4.90;84.80;;;;;;5015812;28;20490;-85
2021/10/08 04:18:46;;;;;;;30.42;19.85;;;4.90;84.70;;;;;;5015941;28;20025;-86
2021/10/08 04:21:13;;;;;;;28.88;19.38;;;4.90;84.70;;;;;;5015313;28;20018;-84
2021/10/08 04:23:39;;;;;;;31.45;21.13;;;5.00;84.70;;;;;;5000214;28;20034;-85
2021/10/08 04:26:05;;;;;;;32.58;21.17;;;5.00;84.70;;;;;;5015301;28;20022;-85
2021/10/08 04:28:31;;;;;;;28.02;20.23;;;5.00;84.50;;;;;;5015034;28;20030;-85
2021/10/08 04:30:57;;;;;;;30.80;20.88;;;5.00;84.50;;;;;;5015762;28;20076;-86
2021/10/08 04:33:25;;;;;;;32.38;21.48;;;5.00;84.50;;;;;;5019694;28;20026;-86
2021/10/08 04:35:51;;;;;;;30.38;19.98;;;5.10;84.50;;;;;;5024098;28;20014;-86
2021/10/08 04:38:18;;;;;;;28.55;19.48;;;5.00;84.50;;;;;;5030219;28;20026;-86
2021/10/08 04:40:45;;;;;;;38.23;21.93;;;5.00;84.40;;;;;;4999692;28;20022;-87
2021/10/08 04:43:11;;;;;;;33.72;20.65;;;5.10;84.30;;;;;;4995357;28;20038;-85
2021/10/08 04:45:37;;;;;;;28.13;20.45;;;5.10;84.30;;;;;;5002573;28;20028;-84
2021/10/08 04:48:03;;;;;;;41.65;19.42;;;5.10;84.20;;;;;;5013890;28;20065;-86
2021/10/08 04:50:29;;;;;;;30.63;19.85;;;5.10;83.80;;;;;;5017402;28;20056;-86
2021/10/08 04:52:55;;;;;;;31.52;20.02;;;5.20;83.40;;;;;;5015798;28;20022;-87
2021/10/08 04:55:21;;;;;;;27.98;19.42;;;5.20;82.90;;;;;;5015428;28;20097;-85
2021/10/08 04:57:47;;;;;;;29.75;20.13;;;5.20;82.60;;;;;;4997703;28;20022;-85
2021/10/08 05:00:13;;;;;;;24.73;18.70;;;5.30;82.40;;;;;;5016088;28;20029;-87
2021/10/08 05:02:39;;;;;;;29.80;20.27;;;5.30;82.20;;;;;;5015955;28;20128;-86
2021/10/08 05:05:05;;;;;;;31.50;19.17;;;5.30;82.20;;;;;;5015701;28;20495;-87
2021/10/08 05:07:31;;;;;;;36.63;19.38;;;5.30;82.10;;;;;;4998080;28;20056;-87
2021/10/08 05:09:57;;;;;;;32.28;20.15;;;5.40;81.90;;;;;;5015713;28;20026;-85
2021/10/08 05:12:25;;;;;;;40.25;20.35;;;5.40;81.60;;;;;;5013719;28;20026;-85
2021/10/08 05:14:55;;;;;;;25.23;18.45;;;5.40;81.50;;;;;;5015207;28;20092;-85
2021/10/08 05:17:21;;;;;;;44.30;19.25;;;5.50;81.10;;;;;;4996862;28;20529;-87
2021/10/08 05:19:47;;;;;;;35.75;18.88;;;5.50;80.80;;;;;;5015330;28;20029;-85
2021/10/08 05:22:13;;;;;;;28.27;17.10;;;5.50;80.50;;;;;;5003766;28;20018;-86
2021/10/08 05:24:39;;;;;;;32.45;17.33;;;5.60;80.30;;;;;;5010588;28;20045;-88
2021/10/08 05:27:06;;;;;;;35.65;20.10;;;5.60;80.10;;;;;;4978473;28;20026;-86
2021/10/08 05:29:31;;;;;;;38.75;17.83;;;5.70;80.00;;;;;;4995870;28;20109;-87
2021/10/08 05:31:57;;;;;;;39.13;18.80;;;5.70;80.00;;;;;;4983296;28;20049;-86
2021/10/08 05:34:23;;;;;;;30.80;18.85;;;6.10;79.90;;;;;;4983306;28;20033;-87
2021/10/08 05:36:49;;;;;;;28.15;17.75;;;6.30;79.30;;;;;;5000715;28;20423;-88
2021/10/08 05:39:19;;;;;;;29.52;17.42;;;6.30;78.90;;;;;;5003540;28;20030;-86
2021/10/08 05:41:45;;;;;;;36.97;18.67;;;6.30;78.70;;;;;;5008464;28;20082;-85
2021/10/08 05:44:11;;;;;;;28.25;18.30;;;6.30;78.70;;;;;;5000796;28;20070;-86
2021/10/08 05:46:38;;;;;;;29.50;18.58;;;6.30;78.60;;;;;;4998221;28;20056;-86
2021/10/08 05:49:04;;;;;;;33.33;18.52;;;6.30;78.40;;;;;;5009482;28;20029;-87
2021/10/08 05:51:30;;;;;;;22.88;15.40;;;6.30;78.30;;;;;;5017285;28;20035;-86
2021/10/08 05:53:56;;;;;;;30.10;16.75;;;6.30;78.20;;;;;;5018282;28;20028;-85
2021/10/08 05:56:21;;;;;;;20.10;12.73;;;6.40;78.10;;;;;;5021848;28;20022;-86
2021/10/08 05:58:47;;;;;;;20.38;12.63;;;6.40;77.50;;;;;;5020629;28;20033;-86
2021/10/08 06:01:14;;;;;;;19.42;13.73;;;6.50;77.00;;;;;;5018475;28;20049;-86
2021/10/08 06:03:41;;;;;;;21.55;15.13;;;6.50;76.60;;;;;;5023262;28;20038;-87
2021/10/08 06:06:07;;;;;;;23.23;14.83;;;6.60;76.60;;;;;;5000400;28;20034;-87
2021/10/08 06:08:33;;;;;;;19.83;13.95;;;6.60;76.60;;;;;;5017983;28;20848;-86
2021/10/08 06:10:58;;;;;;;20.13;13.35;;;6.70;76.30;;;;;;5019720;28;20030;-85
2021/10/08 06:13:25;;;;;;;20.27;13.88;;;6.70;76.30;;;;;;5001924;28;20091;-87
2021/10/08 06:15:54;;;;;;;19.55;14.23;;;6.70;76.20;;;;;;5017312;28;20021;-84
2021/10/08 06:18:20;;;;;;;23.83;13.93;;;6.80;76.00;;;;;;5002949;28;20538;-85
2021/10/08 06:20:45;;;;;;;17.48;12.65;;;6.80;75.60;;;;;;5021430;28;20026;-88
2021/10/08 06:23:11;;;;;;;25.05;15.60;;;6.90;75.50;;;;;;5018299;28;20041;-86
2021/10/08 06:25:37;;;;;;;24.60;14.90;;;6.90;75.40;;;;;;5018885;28;20050;-88
2021/10/08 06:28:03;;;;;;;31.17;14.25;;;7.00;75.50;;;;;;5016793;28;20048;-88
2021/10/08 06:30:29;;;;;;;23.33;14.30;;;7.10;75.40;;;;;;5017456;28;20041;-86
2021/10/08 06:32:54;;;;;;;20.55;14.57;;;7.10;75.20;;;;;;5027043;28;20037;-88
2021/10/08 06:35:20;;;;;;;24.83;14.55;;;7.20;75.00;;;;;;5019626;28;20029;-87
2021/10/08 06:37:46;;;;;;;24.50;13.25;;;7.20;74.70;;;;;;5011241;28;20037;-85
2021/10/08 06:40:13;;;;;;;24.90;13.48;;;7.20;74.30;;;;;;5008353;28;20067;-85
2021/10/08 06:42:40;;;;;;;24.48;14.27;;;7.30;73.90;;;;;;5018559;28;20037;-85
2021/10/08 06:45:07;;;;;;;19.92;14.10;;;7.40;73.80;;;;;;5013911;28;20034;-83
2021/10/08 06:47:35;;;;;;;17.63;14.02;;;7.40;73.40;;;;;;5001940;28;20550;-87
2021/10/08 06:50:02;;;;;;;19.88;13.57;;;7.60;73.10;;;;;;5016099;28;20026;-88
2021/10/08 06:52:30;;;;;;;19.10;13.63;;;7.60;72.60;;;;;;5006945;28;20022;-83
2021/10/08 06:54:56;;;;;;;17.02;12.75;;;7.70;72.60;;;;;;5004783;28;20053;-84
2021/10/08 06:57:22;;;;;;;17.63;12.50;;;7.80;72.10;;;;;;5015362;28;20033;-82
2021/10/08 06:59:47;;;;;;;20.42;12.38;;;7.90;71.30;;;;;;5020904;28;20018;-90
2021/10/08 07:02:13;;;;;;;18.85;13.20;;;8.00;70.90;;;;;;5018171;28;20352;-88
2021/10/08 07:04:42;;;;;;;16.70;10.98;;;8.10;70.70;;;;;;5018889;28;20030;-88
2021/10/08 07:07:09;;;;;;;21.50;11.43;;;8.20;69.90;;;;;;5017264;28;20057;-86
2021/10/08 07:09:35;;;;;;;16.45;11.65;;;8.40;68.90;;;;;;5019527;28;20018;-86
2021/10/08 07:12:01;;;;;;;17.23;12.73;;;8.40;68.70;;;;;;5017756;28;20387;-87
2021/10/08 07:14:27;;;;;;;18.83;11.82;;;8.50;68.10;;;;;;5017706;28;20014;-87
2021/10/08 07:16:55;;;;;;;23.85;12.77;;;8.70;67.30;;;;;;5017689;28;20026;-87
2021/10/08 07:19:22;;;;;;;14.02;10.52;;;9.40;67.90;;;;;;5016748;28;20495;-88
2021/10/08 07:21:48;;;;;;;18.95;12.35;;;11.00;63.80;;;;;;5017697;28;20451;-87
2021/10/08 07:24:15;;;;;;;19.08;11.20;;;12.80;59.00;;;;;;5018216;28;20038;-87
2021/10/08 07:26:41;;;;;;;14.55;11.00;;;14.50;54.10;;;;;;5018554;28;20049;-87
2021/10/08 07:29:07;;;;;;;14.82;10.68;;;15.90;51.50;;;;;;5018486;28;20025;-88
2021/10/08 07:31:33;;;;;;;12.20;9.40;;;17.20;47.50;;;;;;5017392;28;20029;-86
2021/10/08 07:33:59;;;;;;;16.55;10.02;;;17.50;44.10;;;;;;5016900;28;20056;-87
2021/10/08 07:36:27;;;;;;;14.30;8.02;;;17.60;44.10;;;;;;4999236;28;20116;-87
2021/10/08 07:38:52;;;;;;;14.73;8.80;;;18.00;42.30;;;;;;5018386;28;20101;-86
2021/10/08 07:41:19;;;;;;;10.07;8.52;;;18.90;41.70;;;;;;5016757;28;20108;-87
2021/10/08 07:43:45;;;;;;;17.80;10.25;;;19.70;40.00;;;;;;5018479;28;20033;-87
2021/10/08 07:46:11;;;;;;;13.63;9.32;;;20.00;38.50;;;;;;5018355;28;20025;-87
2021/10/08 07:48:38;;;;;;;14.60;9.00;;;20.60;37.80;;;;;;5019667;28;20018;-88
2021/10/08 07:51:04;;;;;;;9.25;8.23;;;20.70;36.50;;;;;;5020938;28;20435;-87
2021/10/08 07:53:31;;;;;;;10.90;7.97;;;21.20;35.50;;;;;;5004661;28;20030;-86
2021/10/08 07:55:57;;;;;;;;;;;21.50;35.30;;;;;;5019135;28;20018;-88
2021/10/08 07:58:32;;;;;;;13.40;9.77;;;22.00;38.20;;;;;;5016942;28;19985;-86
2021/10/08 08:01:00;;;;;;;13.88;9.70;;;22.60;34.00;;;;;;5019956;28;20072;-86
2021/10/08 08:03:26;;;;;;;15.27;9.10;;;23.60;32.90;;;;;;4999043;28;20061;-86
2021/10/08 08:05:52;;;;;;;13.70;8.43;;;24.60;32.00;;;;;;5016486;28;20387;-86
2021/10/08 08:08:18;;;;;;;17.02;9.63;;;24.70;30.90;;;;;;5015240;28;20101;-87
2021/10/08 08:10:44;;;;;;;22.88;10.88;;;;;;;;;;4997834;28;20109;-86
2021/10/08 08:13:13;;;;;;;13.30;9.73;;;24.90;29.50;;;;;;5015489;28;20033;-86
2021/10/08 08:15:38;;;;;;;14.98;10.38;;;24.80;29.70;;;;;;4998377;28;20052;-87
2021/10/08 08:18:04;;;;;;;22.92;10.95;;;24.70;30.30;;;;;;5017001;28;20053;-87
2021/10/08 08:20:30;;;;;;;11.55;8.43;;;25.30;30.00;;;;;;5000823;28;20467;-89
2021/10/08 08:22:56;;;;;;;15.60;9.63;;;25.70;29.20;;;;;;5029038;28;20021;-86
2021/10/08 08:25:22;;;;;;;13.68;8.57;;;26.10;28.70;;;;;;5018821;28;20467;-87
2021/10/08 08:27:48;;;;;;;11.05;8.68;;;26.20;28.50;;;;;;5020701;28;20076;-86
2021/10/08 08:30:14;;;;;;;15.23;8.70;;;26.50;28.00;;;;;;5002691;28;20036;-87
2021/10/08 08:32:41;;;;;;;18.02;10.00;;;26.50;28.10;;;;;;5016834;28;20089;-86
2021/10/08 08:35:07;;;;;;;;;;;26.80;28.00;;;;;;5016656;28;20076;-88
2021/10/08 08:37:33;;;;;;;13.02;9.65;;;27.30;29.80;;;;;;5016410;28;19916;-88
2021/10/08 08:40:02;;;;;;;25.33;11.38;;;27.50;28.00;;;;;;5017324;28;20435;-86
2021/10/08 08:42:28;;;;;;;16.77;10.68;;;28.10;27.70;;;;;;5016655;28;20037;-88
2021/10/08 08:44:54;;;;;;;16.10;9.53;;;28.50;27.10;;;;;;5021060;28;20026;-87
2021/10/08 08:47:21;;;;;;;15.52;9.55;;;28.80;26.90;;;;;;5023188;28;20329;-88
2021/10/08 08:49:49;;;;;;;15.35;8.98;;;28.80;26.60;;;;;;5016878;28;20022;-87
2021/10/08 08:52:15;;;;;;;20.02;8.15;;;27.70;26.70;;;;;;5016773;28;20066;-86
2021/10/08 08:54:42;;;;;;;12.35;8.40;;;26.80;27.00;;;;;;5017119;28;20032;-86
2021/10/08 08:57:09;;;;;;;12.75;8.48;;;27.00;27.10;;;;;;5015300;28;20033;-87
2021/10/08 08:59:56;;;;;;;9.70;7.05;;;27.30;26.80;;;;;;5016966;28;20076;-88
2021/10/08 09:02:25;;;;;;;15.13;7.97;;;27.20;26.80;;;;;;5001369;28;20099;-87
2021/10/08 09:04:51;;;;;;;9.90;7.00;;;27.00;26.60;;;;;;5009540;28;20006;-87
2021/10/08 09:07:17;;;;;;;12.27;6.93;;;27.70;26.70;;;;;;5027342;28;20033;-87
2021/10/08 09:09:44;;;;;;;12.95;7.80;;;27.70;26.30;;;;;;5021633;28;20018;-88
2021/10/08 09:12:10;;;;;;;11.65;7.57;;;28.10;26.60;;;;;;5016016;28;20029;-86
2021/10/08 09:14:36;;;;;;;9.10;7.40;;;28.50;26.30;;;;;;5019244;28;20030;-85
2021/10/08 09:17:09;;;;;;;10.30;7.20;;;28.90;25.90;;;;;;5030077;28;20086;-86
2021/10/08 09:19:46;;;;;;;12.02;7.72;;;29.30;25.60;;;;;;5020945;28;20434;-88
2021/10/08 09:22:14;;;;;;;12.00;7.50;;;28.80;25.60;;;;;;5017093;28;20022;-88
2021/10/08 09:24:39;;;;;;;8.35;7.55;;;28.70;25.50;;;;;;5026192;28;20105;-88
2021/10/08 09:27:10;;;;;;;11.00;7.97;;;28.60;25.50;;;;;;5029258;28;20446;-88
2021/10/08 09:29:36;;;;;;;11.63;7.43;;;28.50;25.40;;;;;;5020904;28;20065;-88
2021/10/08 09:32:03;;;;;;;11.43;8.20;;;28.00;25.50;;;;;;5016060;28;20026;-85
2021/10/08 09:34:31;;;;;;;11.98;8.02;;;28.00;25.50;;;;;;5015736;28;20045;-87
2021/10/08 09:37:00;;;;;;;9.68;7.93;;;28.00;25.50;;;;;;4998680;28;20113;-86
2021/10/08 09:39:30;;;;;;;12.35;7.88;;;28.40;25.50;;;;;;5016171;28;20053;-87
2021/10/08 09:42:12;;;;;;;13.25;7.55;;;28.40;25.40;;;;;;4998928;28;20022;-87
2021/10/08 09:44:48;;;;;;;13.35;7.80;;;28.40;25.30;;;;;;5016122;28;20069;-87
2021/10/08 09:47:17;;;;;;;9.07;7.20;;;28.50;25.20;;;;;;5017805;28;20079;-87
2021/10/08 09:49:45;;;;;;;10.60;6.82;;;28.10;25.00;;;;;;5023521;28;20251;-87
2021/10/08 09:52:23;;;;;;;9.18;7.30;;;28.10;25.00;;;;;;5019672;28;20037;-87
2021/10/08 09:54:51;;;;;;;12.13;7.85;;;28.00;25.40;;;;;;5019577;28;20065;-89
2021/10/08 09:57:18;;;;;;;13.40;7.50;;;28.00;25.00;;;;;;5025861;28;20026;-88
2021/10/08 09:59:46;;;;;;;10.75;7.60;;;27.70;25.00;;;;;;5023268;28;20113;-88
2021/10/08 10:02:12;;;;;;;8.32;6.95;;;27.70;25.40;;;;;;5000857;28;20080;-88
2021/10/08 10:04:55;;;;;;;9.98;6.22;;;28.10;25.10;;;;;;5016219;28;20034;-87
2021/10/08 10:07:23;;;;;;;7.95;6.35;;;28.10;24.80;;;;;;5015209;28;20029;-84
2021/10/08 10:09:50;;;;;;;11.20;9.00;;;26.90;24.60;;;;;;4998308;28;20028;-88
2021/10/08 10:12:17;;;;;;;10.70;8.67;;;25.40;25.70;;;;;;5016140;28;20022;-88
2021/10/08 10:14:45;;;;;;;10.80;8.32;;;23.70;26.90;;;;;;5019542;28;20272;-88
2021/10/08 10:17:12;;;;;;;9.13;7.22;;;22.00;28.10;;;;;;5019107;28;20018;-89
2021/10/08 10:19:43;;;;;;;11.88;8.05;;;20.40;29.20;;;;;;5021343;28;20060;-89
2021/10/08 10:22:14;;;;;;;12.45;7.72;;;19.20;30.30;;;;;;5002546;28;20410;-88
2021/10/08 10:24:42;;;;;;;10.02;7.82;;;18.20;31.40;;;;;;5020530;28;20036;-89
2021/10/08 10:27:09;;;;;;;9.75;8.07;;;17.40;33.40;;;;;;5002357;28;20025;-89
2021/10/08 10:29:36;;;;;;;12.27;8.90;;;16.70;33.60;;;;;;5019355;28;20021;-88
2021/10/08 10:32:05;;;;;;;14.82;8.25;;;16.00;34.70;;;;;;5019410;28;20026;-89
2021/10/08 10:34:36;;;;;;;13.00;9.60;;;15.60;35.50;;;;;;5020943;28;20050;-87
2021/10/08 10:37:02;;;;;;;11.43;8.90;;;15.40;35.90;;;;;;5006705;28;20026;-88
2021/10/08 10:39:28;;;;;;;13.25;8.13;;;15.00;36.30;;;;;;5020360;28;20052;-86
2021/10/08 10:42:13;;;;;;;12.15;7.90;;;14.70;36.90;;;;;;5022631;28;20109;-89
2021/10/08 10:44:59;;;;;;;11.40;7.82;;;14.50;37.50;;;;;;5005068;28;20085;-89
2021/10/08 10:47:32;;;;;;;11.38;7.10;;;14.30;37.50;;;;;;5004325;28;20084;-89
2021/10/08 10:50:14;;;;;;;11.50;7.82;;;14.10;37.50;;;;;;5030053;28;20025;-86
2021/10/08 10:52:55;;;;;;;11.68;7.05;;;14.10;38.70;;;;;;5002575;28;20065;-90
2021/10/08 10:55:23;;;;;;;11.75;7.43;;;14.10;38.40;;;;;;5006815;28;20030;-89
2021/10/08 10:57:54;;;;;;;11.88;7.18;;;14.00;38.90;;;;;;5005892;28;20081;-91
2021/10/08 11:00:36;;;;;;;15.45;8.20;;;14.00;38.60;;;;;;5004509;28;20029;-88
2021/10/08 11:03:32;;;;;;;12.75;7.43;;;13.90;39.40;;;;;;5015193;28;20045;-88
2021/10/08 11:06:14;;;;;;;11.48;7.63;;;13.80;39.00;;;;;;5017724;28;20029;-88
2021/10/08 11:09:07;;;;;;;11.63;7.60;;;13.70;39.60;;;;;;5018405;28;20048;-88
2021/10/08 11:11:33;;;;;;;11.93;8.00;;;13.70;39.90;;;;;;5019583;28;20030;-89
2021/10/08 11:14:20;;;;;;;14.65;7.65;;;13.60;39.80;;;;;;5019768;28;20049;-88
2021/10/08 11:16:46;;;;;;;;;;;13.70;40.10;;;;;;5020514;28;20474;-88
2021/10/08 11:19:39;;;;;;;12.73;8.23;;;13.70;39.30;;;;;;5018723;28;19999;-90
2021/10/08 11:22:05;;;;;;;9.75;7.40;;;13.50;39.60;;;;;;5031285;28;20050;-88
2021/10/08 11:24:31;;;;;;;12.85;7.93;;;13.50;40.00;;;;;;5020125;28;20383;-88
2021/10/08 11:27:00;;;;;;;13.13;8.02;;;13.60;40.50;;;;;;5024974;28;20110;-88
2021/10/08 11:29:31;;;;;;;18.50;7.85;;;13.60;40.40;;;;;;5019539;28;20076;-89
2021/10/08 11:32:05;;;;;;;13.68;7.95;;;13.60;40.50;;;;;;5022596;28;20105;-91
2021/10/08 11:34:45;;;;;;;12.48;7.20;;;13.60;40.70;;;;;;4992486;28;20106;-88
2021/10/08 11:37:11;;;;;;;15.55;6.97;;;13.50;40.80;;;;;;4989649;28;20059;-87
2021/10/08 11:39:43;;;;;;;11.02;7.07;;;13.50;41.10;;;;;;4978025;28;20166;-89
2021/10/08 11:42:18;;;;;;;10.65;7.63;;;13.40;41.20;;;;;;4979642;28;20073;-88
2021/10/08 11:45:00;;;;;;;10.70;7.57;;;13.30;41.10;;;;;;4989211;28;20053;-89
2021/10/08 11:47:37;;;;;;;16.38;8.43;;;13.30;41.20;;;;;;4983333;28;20038;-87
2021/10/08 11:52:58;;;;;;;20.48;8.55;;;13.30;41.40;;;;;;4977557;28;20444;-90
2021/10/08 11:55:27;;;;;;;12.75;8.27;;;13.40;41.80;;;;;;4961240;28;20496;-88
2021/10/08 11:58:01;;;;;;;15.25;9.32;;;13.40;42.20;;;;;;4960455;28;20030;-87
2021/10/08 12:00:39;;;;;;;12.05;7.88;;;13.50;41.40;;;;;;4960885;28;20030;-88
2021/10/08 12:03:13;;;;;;;10.38;8.02;;;13.40;41.60;;;;;;4960803;28;20038;-89
2021/10/08 12:06:01;;;;;;;12.50;8.18;;;13.40;41.50;;;;;;4978164;28;20043;-86
2021/10/08 12:08:36;;;;;;;17.50;8.48;;;13.30;41.50;;;;;;4962115;28;20085;-88
2021/10/08 12:11:12;;;;;;;21.92;8.75;;;13.20;42.20;;;;;;4983697;28;20046;-88
2021/10/08 12:13:43;;;;;;;15.45;8.73;;;13.20;42.10;;;;;;5024242;28;20038;-88
2021/10/08 12:16:14;;;;;;;15.40;8.45;;;13.20;42.50;;;;;;5026058;28;20018;-88
2021/10/08 12:18:57;;;;;;;15.55;8.52;;;13.20;42.10;;;;;;5024454;28;20041;-87
2021/10/08 12:21:29;;;;;;;13.18;8.70;;;13.30;42.20;;;;;;5029508;28;20022;-89
2021/10/08 12:24:00;;;;;;;14.18;8.60;;;13.30;43.10;;;;;;5027345;28;20033;-89
2021/10/08 12:26:30;;;;;;;15.50;8.85;;;13.30;43.00;;;;;;5018197;28;20124;-86
2021/10/08 12:28:57;;;;;;;14.90;9.07;;;13.30;42.30;;;;;;5016753;28;20028;-88
2021/10/08 12:31:47;;;;;;;12.07;8.05;;;13.20;42.30;;;;;;5001014;28;20053;-87
2021/10/08 12:34:13;;;;;;;16.45;9.70;;;13.20;42.10;;;;;;5001647;28;20048;-88
2021/10/08 12:36:42;;;;;;;11.15;7.65;;;13.30;42.90;;;;;;5009393;28;20040;-87
2021/10/08 12:39:11;;;;;;;18.15;9.35;;;13.30;42.10;;;;;;5015865;28;20058;-86
2021/10/08 12:41:49;;;;;;;18.58;9.10;;;13.30;42.20;;;;;;5016370;28;20018;-89
2021/10/08 12:44:24;;;;;;;17.02;8.90;;;13.40;42.50;;;;;;5015466;28;20125;-87
2021/10/08 12:47:12;;;;;;;15.35;7.72;;;13.40;42.20;;;;;;4997225;28;20179;-87
2021/10/08 12:49:53;;;;;;;14.73;8.70;;;13.40;42.10;;;;;;5016160;28;20026;-89
2021/10/08 12:52:40;;;;;;;12.70;8.25;;;13.40;42.40;;;;;;5015368;28;20483;-87
2021/10/08 12:55:13;;;;;;;;;;;13.40;42.50;;;;;;4998973;28;20030;-87
2021/10/08 12:57:58;;;;;;;20.27;8.05;;;13.40;42.40;;;;;;5017120;28;19909;-87
2021/10/08 13:00:44;;;;;;;12.77;8.10;;;13.50;42.80;;;;;;5025555;28;20042;-89
2021/10/08 13:03:37;;;;;;;17.80;8.65;;;13.40;42.50;;;;;;5016022;28;20034;-88
2021/10/08 13:06:02;;;;;;;20.88;8.65;;;13.30;42.40;;;;;;5015935;28;20018;-87